VTBDVTSG

Guest
Details From VTBD - Bangkok Don Mueang Intl
To VTSG - Krabi
Flight Number -
Tags Generated
Created
Modified
Stats Distance 361 nm / 669 km
Max Altitude 0 ft / 0 m
Waypoints 4
Social Downloads 0
Likes 0
Share VATSIM

Download

Looking for another format? Having issues loading an existing format? Contact us
Advertisement - Login to hide

Notes

Generated

Route

VTBD UKERA KBI VTSG

ID Type Via Altitude Latitude Longitude Leg Dist Tot Dist Heading (true) Name
O VTBD APT - 0 ft / 0 m 13.89960˚ 100.60162˚ - 0 nm - -
UKERA FIX - 0 ft / 0 m 12.03535˚ 100.01933˚ 117 nm 117 nm 197° / 197° -
KBI VOR - 0 ft / 0 m 8.10755˚ 98.97752˚ 243 nm 360 nm 195° / 195° KRABI VOR-DME
O VTSG APT - 0 ft / 0 m 8.10647˚ 98.98012˚ 0 nm 361 nm 113° / 113° -

Altitude Profile

Advertisement - Login to hide

Weather


0- 5 10 15 20 25 30 35+ Temperature / ° C

Clouds and Precipitation
Forecast for 2017-12-15 18:00 UTC. Updated 34 minutes ago

Ground ~20,000 ft ~40,000 ft Winds

VTBD

Details ICAO VTBD (DMK)
Name Bangkok Don Mueang Intl
Region Thailand
Timezone Asia/Bangkok (UTC+7.0)
Stats Elevation 9 ft / 3 m (AMSL)
Location 13.912597° 100.606799°
Runways 2
Magnetic Variation 0.582° W

METAR

VTBD 151730Z 19003KT 160V230 9000 -RA FEW020 BKN100 27/25 Q1012 NOSIG

Decode

TAF

TAF VTBD 151100Z 1512/1618 35005KT 9999 FEW040 BECMG 1602/1604 06008KT FEW025 BECMG 1614/1616 35005KT FEW040

Decode

Departure Runways

ID Width Length Bearing (true) Bearing (mag) Surface Threshold Offset Overrun Length
03L 197 ft / 60 m 12,186 ft / 3,714 m 28.55° 29.13° Asphalt 0 ft / 0 m 492 ft / 150 m
03R 148 ft / 45 m 11,520 ft / 3,511 m 28.50° 29.08° Asphalt 0 ft / 0 m 348 ft / 106 m
21L 148 ft / 45 m 11,520 ft / 3,511 m 208.50° 209.08° Asphalt 1,145 ft / 349 m 180 ft / 55 m
21R 197 ft / 60 m 12,186 ft / 3,714 m 208.55° 209.13° Asphalt 0 ft / 0 m 492 ft / 150 m

VTSG

Details ICAO VTSG (KBV)
Name Krabi
Region Thailand
Timezone Asia/Bangkok (UTC+7.0)
Stats Elevation 82 ft / 25 m (AMSL)
Location 8.095977° 98.988763°
Runways 1
Magnetic Variation 0.387° W

METAR

VTSG 151700Z 00000KT 6000 BR FEW020 23/23 Q1013

Decode

TAF

TAF VTSG 151100Z 1512/1612 VRB02KT 9999 FEW020 BECMG 1522/1524 4000 BR BECMG 1602/1604 04005KT 9999 NSW TEMPO 1608/1612 VRB10G20KT 3000 TSRA FEW018CB SCT020 BKN100

Decode

Destination Runways

ID Width Length Bearing (true) Bearing (mag) Surface Threshold Offset Overrun Length
14 148 ft / 45 m 9,880 ft / 3,012 m 140.79° 141.18° Asphalt 0 ft / 0 m 197 ft / 60 m
32 148 ft / 45 m 9,880 ft / 3,012 m 320.80° 321.19° Asphalt 0 ft / 0 m 197 ft / 60 m

Approach Navaids

Runway Type Ident Frequency Range Bearing (true) Bearing (mag) Slope Elevation
32 Localiser IKBI 110.10 MHz 18 nm / 33 km 320.80° 321.18° - 71 ft / 22 m (AMSL)
32 Glidescope IKBI 110.10 MHz 10 nm / 19 km 320.80° 321.18° 3.00° 77 ft / 23 m (AMSL)
32 DME IKBI 110.10 MHz 18 nm / 33 km - - - 71 ft / 22 m (AMSL)

Popular Alternatives